createdAt,value
2019-06-08T00:00:08.561Z,18.60
2019-06-08T00:02:43.412Z,18.40
2019-06-08T00:05:18.848Z,18.40
2019-06-08T00:07:53.826Z,18.20
2019-06-08T00:10:28.708Z,18.20
2019-06-08T00:13:03.538Z,18.10
2019-06-08T00:15:38.372Z,18.10
2019-06-08T00:18:13.243Z,18.10
2019-06-08T00:20:48.128Z,18.10
2019-06-08T00:23:23.918Z,18.10
2019-06-08T00:25:58.820Z,18.10
2019-06-08T00:28:33.695Z,18.10
2019-06-08T00:31:08.485Z,18.10
2019-06-08T00:33:43.274Z,18.00
2019-06-08T00:36:18.797Z,18.00
2019-06-08T00:38:53.392Z,18.10
2019-06-08T00:41:28.209Z,18.10
2019-06-08T00:44:02.965Z,18.00
2019-06-08T00:46:38.508Z,17.90
2019-06-08T00:49:13.369Z,17.90
2019-06-08T00:51:48.278Z,17.90
2019-06-08T00:54:23.487Z,17.90
2019-06-08T00:56:58.506Z,17.90
2019-06-08T00:59:33.287Z,17.80
2019-06-08T01:02:08.080Z,17.80
2019-06-08T01:04:42.873Z,17.70
2019-06-08T01:07:17.985Z,17.70
2019-06-08T01:13:27.452Z,17.60
2019-06-08T01:29:33.887Z,17.40
2019-06-08T01:32:14.060Z,17.40
2019-06-08T01:38:38.171Z,17.40
2019-06-08T01:41:23.381Z,17.40
2019-06-08T01:43:59.168Z,17.30
2019-06-08T01:49:55.456Z,17.30
2019-06-08T01:52:42.658Z,17.20
2019-06-08T01:56:22.913Z,17.20
2019-06-08T01:58:56.518Z,17.20
2019-06-08T02:39:24.034Z,16.60
2019-06-08T03:28:05.685Z,19.70
2019-06-08T03:30:55.201Z,20.50
2019-06-08T03:33:34.595Z,21.10
2019-06-08T03:36:08.378Z,21.70
2019-06-08T03:38:44.707Z,22.20
2019-06-08T03:41:19.814Z,22.80
2019-06-08T03:43:54.685Z,23.20
2019-06-08T03:46:29.504Z,23.70
2019-06-08T03:49:07.712Z,24.20
2019-06-08T03:51:49.019Z,24.70
2019-06-08T03:54:23.522Z,25.10
2019-06-08T03:57:05.430Z,25.50
2019-06-08T03:59:43.205Z,25.80
2019-06-08T04:02:17.639Z,26.00
2019-06-08T04:04:52.478Z,26.10
2019-06-08T04:07:30.192Z,26.30
2019-06-08T04:10:28.735Z,26.40
2019-06-08T04:13:11.128Z,26.50
2019-06-08T04:15:54.443Z,26.60
2019-06-08T04:18:38.051Z,26.70
2019-06-08T04:21:14.731Z,26.60
2019-06-08T04:27:35.206Z,26.20
2019-06-08T04:40:27.198Z,26.30
2019-06-08T04:43:12.520Z,26.30
2019-06-08T04:50:20.928Z,26.10
2019-06-08T04:53:03.754Z,26.10
2019-06-08T04:55:38.871Z,26.00
2019-06-08T04:58:14.236Z,26.20
2019-06-08T05:00:50.777Z,26.30
2019-06-08T05:03:26.059Z,26.40
2019-06-08T05:06:00.876Z,26.50
2019-06-08T05:08:35.687Z,26.30
2019-06-08T05:11:10.516Z,26.30
2019-06-08T05:13:47.618Z,26.40
2019-06-08T05:16:22.575Z,26.50
2019-06-08T05:18:57.523Z,26.60
2019-06-08T05:21:32.336Z,26.90
2019-06-08T05:24:07.384Z,27.20
2019-06-08T05:26:43.560Z,27.30
2019-06-08T05:29:20.541Z,27.10
2019-06-08T05:31:55.492Z,27.20
2019-06-08T05:34:34.600Z,27.40
2019-06-08T05:37:19.178Z,27.50
2019-06-08T05:39:52.049Z,27.50
2019-06-08T05:42:27.123Z,27.60
2019-06-08T05:45:17.572Z,27.80
2019-06-08T05:47:52.616Z,28.20
2019-06-08T05:50:27.372Z,28.50
2019-06-08T05:53:03.246Z,28.60
2019-06-08T05:55:38.154Z,28.70
2019-06-08T05:58:13.236Z,28.40
2019-06-08T06:00:50.667Z,28.60
2019-06-08T06:03:27.896Z,28.50
2019-06-08T06:06:02.638Z,28.60
2019-06-08T06:08:37.531Z,28.70
2019-06-08T06:11:12.375Z,28.70
2019-06-08T06:13:49.775Z,28.60
2019-06-08T06:16:23.566Z,28.90
2019-06-08T06:18:58.364Z,29.10
2019-06-08T06:21:34.567Z,29.20
2019-06-08T06:24:09.454Z,29.30
2019-06-08T06:26:45.978Z,28.10
2019-06-08T06:29:23.299Z,28.30
2019-06-08T06:31:58.010Z,28.20
2019-06-08T06:34:33.528Z,28.00
2019-06-08T06:37:08.366Z,27.60
2019-06-08T06:39:48.162Z,27.50
2019-06-08T06:42:50.065Z,27.50
2019-06-08T06:53:00.301Z,28.20
2019-06-08T06:55:36.602Z,28.20
2019-06-08T06:59:05.676Z,27.80
2019-06-08T07:01:45.490Z,28.00
2019-06-08T07:04:22.752Z,28.10
2019-06-08T07:07:05.091Z,28.50
2019-06-08T07:09:39.983Z,29.10
2019-06-08T07:12:14.876Z,29.20
2019-06-08T07:14:51.260Z,29.40
2019-06-08T07:17:27.947Z,29.40
2019-06-08T07:20:05.515Z,29.30
2019-06-08T07:22:41.983Z,29.20
2019-06-08T07:25:18.245Z,29.40
2019-06-08T07:27:54.952Z,29.70
2019-06-08T07:30:34.709Z,29.70
2019-06-08T07:33:09.493Z,29.70
2019-06-08T07:35:44.571Z,29.70
2019-06-08T07:38:26.551Z,29.90
2019-06-08T07:41:01.824Z,30.00
2019-06-08T07:43:36.806Z,29.90
2019-06-08T07:46:11.763Z,29.80
2019-06-08T07:48:48.019Z,30.00
2019-06-08T07:51:23.915Z,30.20
2019-06-08T07:54:00.803Z,30.30
2019-06-08T07:56:35.570Z,30.30
2019-06-08T07:59:10.241Z,30.30
2019-06-08T08:01:45.061Z,30.30
2019-06-08T08:04:19.822Z,30.50
2019-06-08T08:06:54.738Z,30.60
2019-06-08T08:09:29.779Z,30.60
2019-06-08T08:12:07.372Z,30.40
2019-06-08T08:14:44.639Z,30.50
2019-06-08T08:17:23.613Z,30.50
2019-06-08T08:20:03.872Z,30.20
2019-06-08T08:22:38.775Z,30.30
2019-06-08T08:25:14.454Z,30.00
2019-06-08T08:27:50.340Z,30.10
2019-06-08T08:30:28.278Z,30.30
2019-06-08T08:33:03.853Z,30.00
2019-06-08T08:36:01.868Z,30.10
2019-06-08T08:45:59.124Z,30.10
2019-06-08T17:39:02.401Z,22.80
2019-06-08T17:49:23.764Z,22.70
2019-06-08T17:51:59.900Z,22.60
2019-06-08T17:55:12.862Z,22.50
2019-06-08T17:59:19.544Z,22.60
2019-06-08T18:00:44.797Z,22.50
2019-06-08T18:03:28.565Z,22.40
2019-06-08T18:06:21.379Z,22.30
2019-06-08T18:11:59.617Z,22.10
2019-06-08T18:14:43.263Z,22.00
2019-06-08T18:17:20.361Z,21.90
2019-06-08T18:19:57.959Z,21.80
2019-06-08T18:22:32.872Z,21.80
2019-06-08T18:25:08.841Z,21.90
2019-06-08T18:28:01.781Z,21.80
2019-06-08T18:30:23.278Z,21.60
2019-06-08T18:32:58.249Z,21.60
2019-06-08T18:43:52.408Z,21.40
2019-06-08T18:46:27.204Z,21.30
2019-06-08T18:49:01.900Z,21.30
2019-06-08T18:51:38.219Z,21.20
2019-06-08T18:54:15.159Z,21.10
2019-06-08T18:56:50.907Z,21.10
2019-06-08T18:59:28.579Z,21.20
2019-06-08T19:02:03.620Z,21.10
2019-06-08T19:04:40.279Z,21.00
2019-06-08T19:07:21.189Z,20.90
2019-06-08T19:09:58.163Z,20.90
2019-06-08T19:12:33.079Z,20.90
2019-06-08T19:15:11.350Z,20.80
2019-06-08T19:17:51.346Z,20.70
2019-06-08T19:20:20.803Z,20.70
2019-06-08T19:22:57.763Z,20.70
2019-06-08T19:25:32.082Z,20.60
2019-06-08T19:28:07.781Z,20.50
2019-06-08T19:30:45.511Z,20.50
2019-06-08T19:33:19.143Z,20.50
2019-06-08T19:35:54.173Z,20.50
2019-06-08T19:38:29.129Z,20.50
2019-06-08T19:41:04.015Z,20.50
2019-06-08T19:43:41.502Z,20.40
2019-06-08T19:46:15.009Z,20.40
2019-06-08T19:48:54.692Z,20.40
2019-06-08T19:51:27.852Z,20.30
2019-06-08T19:54:02.694Z,20.30
2019-06-08T19:56:39.013Z,20.10
2019-06-08T19:59:13.938Z,20.00
2019-06-08T20:01:54.427Z,20.00
2019-06-08T20:04:27.427Z,20.00
2019-06-08T20:07:01.478Z,19.90
2019-06-08T20:09:37.635Z,19.90
2019-06-08T20:12:12.545Z,19.70
2019-06-08T20:14:51.088Z,19.70
2019-06-08T20:17:28.383Z,19.70
2019-06-08T20:20:02.335Z,19.60
2019-06-08T20:22:37.823Z,19.50
2019-06-08T20:25:12.677Z,19.50
2019-06-08T20:27:49.762Z,19.40
2019-06-08T20:30:23.936Z,19.30
2019-06-08T20:32:58.714Z,19.30
2019-06-08T20:35:33.487Z,19.20
2019-06-08T20:38:08.443Z,19.10
2019-06-08T20:40:44.000Z,19.10
2019-06-08T20:43:18.910Z,19.10
2019-06-08T20:45:53.704Z,19.10
2019-06-08T20:48:28.424Z,19.00
2019-06-08T20:51:03.152Z,19.00
2019-06-08T20:53:38.781Z,19.00
2019-06-08T20:56:13.774Z,18.90
2019-06-08T20:58:50.958Z,18.90
2019-06-08T21:01:24.953Z,18.90
2019-06-08T21:03:59.774Z,18.80
2019-06-08T21:06:34.487Z,18.70
2019-06-08T21:09:09.272Z,18.70
2019-06-08T21:11:44.998Z,18.70
2019-06-08T21:14:20.206Z,18.50
2019-06-08T21:16:55.032Z,18.50
2019-06-08T21:19:29.879Z,18.40
2019-06-08T21:22:04.747Z,18.40
2019-06-08T21:24:39.631Z,18.40
2019-06-08T21:27:14.371Z,18.40
2019-06-08T21:29:56.200Z,18.40
2019-06-08T21:32:27.671Z,18.30
2019-06-08T21:35:03.384Z,18.40
2019-06-08T21:37:38.166Z,18.30
2019-06-08T21:40:12.989Z,18.30
2019-06-08T21:42:51.441Z,18.20
2019-06-08T21:45:24.310Z,18.20
2019-06-08T21:48:00.438Z,18.10
2019-06-08T21:50:37.147Z,18.10
2019-06-08T21:53:12.071Z,18.10
2019-06-08T21:55:47.932Z,18.10
2019-06-08T21:58:23.489Z,18.00
2019-06-08T22:01:00.918Z,18.00
2019-06-08T22:03:34.961Z,18.00
2019-06-08T22:06:09.680Z,17.90
2019-06-08T22:08:44.517Z,17.90
2019-06-08T22:11:20.957Z,17.90
2019-06-08T22:13:59.220Z,17.90
2019-06-08T22:16:32.118Z,17.80
2019-06-08T22:19:07.657Z,17.70
2019-06-08T22:21:42.580Z,17.80
2019-06-08T22:24:17.411Z,17.70
2019-06-08T22:26:52.669Z,17.70
2019-06-08T22:29:30.874Z,17.70
2019-06-08T22:32:07.646Z,17.70
2019-06-08T22:34:41.983Z,17.80
2019-06-08T22:37:16.669Z,17.70
2019-06-08T22:39:53.145Z,17.70
2019-06-08T22:42:29.183Z,17.70
2019-06-08T22:45:08.259Z,17.60
2019-06-08T22:47:42.626Z,17.50
2019-06-08T22:50:18.550Z,17.50
2019-06-08T22:52:53.976Z,17.60
2019-06-08T22:55:29.840Z,17.60
2019-06-08T22:58:04.700Z,17.50
2019-06-08T23:00:51.753Z,17.50
2019-06-08T23:03:18.229Z,17.50
2019-06-08T23:05:54.798Z,17.40
2019-06-08T23:08:29.197Z,17.40
2019-06-08T23:11:05.132Z,17.30
2019-06-08T23:13:40.396Z,17.30
2019-06-08T23:16:15.016Z,17.20
2019-06-08T23:18:49.823Z,17.20
2019-06-08T23:21:24.596Z,17.20
2019-06-08T23:24:01.002Z,17.20
2019-06-08T23:26:37.249Z,17.20
2019-06-08T23:29:12.160Z,17.20
2019-06-08T23:31:47.937Z,17.20
2019-06-08T23:34:23.389Z,17.20
2019-06-08T23:37:02.446Z,17.20
2019-06-08T23:39:34.707Z,17.20
2019-06-08T23:42:09.484Z,17.10
2019-06-08T23:44:44.371Z,17.10
2019-06-08T23:47:19.163Z,17.10
2019-06-08T23:49:53.938Z,17.10
2019-06-08T23:52:28.651Z,17.10
2019-06-08T23:55:06.171Z,17.00
2019-06-08T23:57:41.139Z,17.00
